首页
METAR-TAF:

METAR-TAF

机场 :

Greenville Downtown Airport

格林维尔, 南卡罗来纳州, 美国

纬度: 34-50-46N, 经度: 082-20-46W, 海拔: 319米

当前天气观测

该预报发布于1小时和0分钟前的00:53 UTC
静风
温度 23°C
湿度 50%
气压 1016 hPa
能見度: 16.1公里
天空无云

METAR: KGMU 070053Z 00000KT 10SM CLR 23/12 A3001 RMK AO2 SLP155 T02280117

时间: 21:53 (01:53 UTC)

预报

该预报发布于2小时和19分钟前的23:34 UTC
预报有效从07日的 00点(UTC)到 07日的 24点(UTC)
风速3节,风向西转西南
能見度: 10公里
散云层高于8000英尺
多云层高于20000英尺
从 07日的 1500点(UTC)
风速11节,风向西转西南,有时为18节阵风
能見度: 10公里
散云层高于7000英尺
多云层高于25000英尺
几率 30%
从 07日的 18点(UTC)到 07日的 22点(UTC)
能見度: 6.4公里
多云层高于6000英尺, 积雨云.
雷暴, 雨, 轻雾
从 07日的 2300点(UTC)
风速8节,风向西转西南
能見度: 10公里
散云层高于6000英尺
多云层高于25000英尺

TAF: KGMU 062334Z 0700/0724 25003KT P6SM SCT080 BKN200 FM071500 24011G18KT P6SM SCT070 BKN250 PROB30 0718/0722 4SM TSRA BR BKN060CB FM072300 25008KT P6SM SCT060 BKN250

超过4000个机场的气象观测和天气预报(METAR&TAF报告)。

可查询的气象台以黄色和红色小点在地图上表示。

将鼠标移到小点上方,可查看气象台名称。

然后点击查看天气观测和预报。

如需切换地图:点击带黑十字的绿色按钮放大地图;点击带横线的绿色按钮缩小地图;或者点击绿色箭头查看邻近地区的地图。


METAR-TAF: